Login to view products.
 
Saturday, August 08, 2020 (09:21 UTC)
Al Bateen Executive Airport
ICAO: OMAD
IATA: AZI
  • METAR OMAD 080900Z 27011KT 240V300 CAVOK 39/18 Q0994 NOSIG=
  • TAF OMAD 080500Z 0806/0912 28010KT CAVOK BECMG 0816/0818 VRB02KT BECMG 0904/0906 30010KT=
D:\Input Parser\Destinations\Final\05\OMADL061205002026988201.txt
1